createdAt,value
2022-11-19T00:00:01.461Z,3.19
2022-11-19T00:02:36.403Z,3.14
2022-11-19T00:05:08.450Z,3.12
2022-11-19T00:07:40.378Z,3.13
2022-11-19T00:10:12.188Z,3.12
2022-11-19T00:12:56.701Z,3.09
2022-11-19T00:15:28.524Z,3.04
2022-11-19T00:18:00.893Z,3.02
2022-11-19T00:20:34.486Z,3.01
2022-11-19T00:23:06.382Z,2.99
2022-11-19T00:25:38.303Z,2.97
2022-11-19T00:28:10.253Z,2.97
2022-11-19T00:30:48.102Z,2.97
2022-11-19T00:33:20.405Z,2.95
2022-11-19T00:35:56.297Z,2.93
2022-11-19T00:38:29.238Z,2.93
2022-11-19T00:41:01.302Z,2.90
2022-11-19T00:43:48.417Z,2.92
2022-11-19T00:46:26.046Z,2.92
2022-11-19T00:48:59.223Z,2.92
2022-11-19T00:51:31.391Z,2.94
2022-11-19T00:54:03.548Z,2.94
2022-11-19T00:56:35.371Z,2.98
2022-11-19T00:59:07.522Z,2.99
2022-11-19T01:01:39.453Z,2.99
2022-11-19T01:04:11.475Z,2.98
2022-11-19T01:06:43.321Z,3.00
2022-11-19T01:09:15.236Z,3.00
2022-11-19T01:11:47.134Z,3.02
2022-11-19T01:14:19.050Z,3.07
2022-11-19T01:16:50.986Z,3.10
2022-11-19T01:19:22.997Z,3.13
2022-11-19T01:21:54.912Z,3.16
2022-11-19T01:24:26.957Z,3.17
2022-11-19T01:26:58.791Z,3.18
2022-11-19T01:29:30.624Z,3.18
2022-11-19T01:32:02.473Z,3.19
2022-11-19T01:34:34.286Z,3.18
2022-11-19T01:37:06.197Z,3.17
2022-11-19T01:39:38.145Z,3.16
2022-11-19T01:42:48.697Z,3.17
2022-11-19T01:45:36.217Z,3.16
2022-11-19T01:48:25.874Z,3.16
2022-11-19T01:51:02.773Z,3.13
2022-11-19T01:53:36.007Z,3.10
2022-11-19T01:56:08.927Z,3.07
2022-11-19T01:58:42.705Z,3.06
2022-11-19T02:01:16.312Z,3.04
2022-11-19T02:03:48.882Z,3.03
2022-11-19T02:06:20.849Z,3.01
2022-11-19T02:08:53.422Z,3.00
2022-11-19T02:11:37.819Z,2.99
2022-11-19T02:14:32.857Z,2.97
2022-11-19T02:17:32.383Z,2.96
2022-11-19T02:20:27.702Z,2.96
2022-11-19T02:23:36.065Z,2.94
2022-11-19T02:26:28.114Z,2.91
2022-11-19T02:29:21.983Z,2.89
2022-11-19T02:32:03.546Z,2.88
2022-11-19T02:34:56.667Z,2.86
2022-11-19T02:37:37.193Z,2.85
2022-11-19T02:40:43.877Z,2.83
2022-11-19T02:43:20.696Z,2.82
2022-11-19T02:45:59.214Z,2.82
2022-11-19T02:48:43.678Z,2.82
2022-11-19T02:51:16.648Z,2.81
2022-11-19T02:53:48.586Z,2.81
2022-11-19T02:56:45.427Z,2.81
2022-11-19T02:59:41.833Z,2.81
2022-11-19T03:02:53.529Z,2.80
2022-11-19T03:05:28.531Z,2.80
2022-11-19T03:08:00.428Z,2.79
2022-11-19T03:10:39.520Z,2.77
2022-11-19T03:13:35.610Z,2.76
2022-11-19T03:16:28.739Z,2.75
2022-11-19T03:19:07.742Z,2.74
2022-11-19T03:21:44.316Z,2.74
2022-11-19T03:24:21.006Z,2.72
2022-11-19T03:27:00.552Z,2.72
2022-11-19T03:29:35.966Z,2.71
2022-11-19T03:32:13.127Z,2.71
2022-11-19T03:34:46.886Z,2.72
2022-11-19T03:37:21.716Z,2.73
2022-11-19T03:39:56.788Z,2.76
2022-11-19T03:42:29.914Z,2.80
2022-11-19T03:45:07.442Z,2.82
2022-11-19T03:47:40.796Z,2.85
2022-11-19T03:50:23.730Z,2.89
2022-11-19T03:53:02.793Z,2.89
2022-11-19T03:55:40.624Z,2.90
2022-11-19T03:58:12.683Z,2.90
2022-11-19T04:00:44.624Z,2.90
2022-11-19T04:03:17.383Z,2.88
2022-11-19T04:05:49.348Z,2.84
2022-11-19T04:08:21.201Z,2.81
2022-11-19T04:10:53.143Z,2.80
2022-11-19T04:13:25.107Z,2.78
2022-11-19T04:15:56.994Z,2.76
2022-11-19T04:18:28.891Z,2.73
2022-11-19T04:21:00.942Z,2.74
2022-11-19T04:23:32.796Z,2.74
2022-11-19T04:26:04.739Z,2.75
2022-11-19T04:28:36.722Z,2.74
2022-11-19T04:31:11.269Z,2.74
2022-11-19T04:33:45.857Z,2.74
2022-11-19T04:36:17.793Z,2.75
2022-11-19T04:38:49.805Z,2.77
2022-11-19T04:41:21.695Z,2.79
2022-11-19T04:43:53.681Z,2.81
2022-11-19T04:46:25.538Z,2.84
2022-11-19T04:48:57.766Z,2.85
2022-11-19T04:51:29.620Z,2.87
2022-11-19T04:54:01.794Z,2.88
2022-11-19T04:56:33.597Z,2.90
2022-11-19T04:59:05.718Z,2.92
2022-11-19T05:01:37.663Z,2.94
2022-11-19T05:04:10.131Z,2.98
2022-11-19T05:06:42.045Z,3.01
2022-11-19T05:09:13.879Z,2.99
2022-11-19T05:11:45.698Z,2.95
2022-11-19T05:14:17.595Z,2.90
2022-11-19T05:16:49.448Z,2.88
2022-11-19T05:19:21.571Z,2.87
2022-11-19T05:21:53.620Z,2.84
2022-11-19T05:24:25.512Z,2.83
2022-11-19T05:26:57.509Z,2.81
2022-11-19T05:29:29.345Z,2.81
2022-11-19T05:32:01.354Z,2.82
2022-11-19T05:34:33.230Z,2.84
2022-11-19T05:37:05.166Z,2.89
2022-11-19T05:39:37.013Z,2.94
2022-11-19T05:42:09.044Z,2.97
2022-11-19T05:44:40.874Z,3.00
2022-11-19T05:47:12.798Z,3.06
2022-11-19T05:49:44.691Z,3.09
2022-11-19T05:52:16.529Z,3.10
2022-11-19T05:54:48.403Z,3.13
2022-11-19T05:57:20.285Z,3.15
2022-11-19T05:59:52.400Z,3.14
2022-11-19T06:02:27.260Z,3.16
2022-11-19T06:04:59.308Z,3.19
2022-11-19T06:07:31.288Z,3.21
2022-11-19T06:10:03.449Z,3.23
2022-11-19T06:12:36.168Z,3.23
2022-11-19T06:15:10.771Z,3.23
2022-11-19T06:17:42.728Z,3.23
2022-11-19T06:20:14.779Z,3.21
2022-11-19T06:22:46.642Z,3.17
2022-11-19T06:25:18.762Z,3.16
2022-11-19T06:27:50.656Z,3.16
2022-11-19T06:30:22.644Z,3.15
2022-11-19T06:32:54.551Z,3.15
2022-11-19T06:35:26.447Z,3.13
2022-11-19T06:37:58.431Z,3.10
2022-11-19T06:40:30.298Z,3.09
2022-11-19T06:43:02.164Z,3.06
2022-11-19T06:45:34.053Z,3.06
2022-11-19T06:48:05.973Z,3.03
2022-11-19T06:50:37.873Z,3.04
2022-11-19T06:53:09.759Z,3.07
2022-11-19T06:55:41.739Z,3.08
2022-11-19T06:58:15.358Z,3.08
2022-11-19T07:00:47.217Z,3.07
2022-11-19T07:03:19.636Z,3.06
2022-11-19T07:05:56.702Z,3.04
2022-11-19T07:08:31.495Z,3.04
2022-11-19T07:11:24.136Z,3.04
2022-11-19T07:13:57.620Z,3.04
2022-11-19T07:16:32.031Z,3.04
2022-11-19T07:19:06.049Z,3.04
2022-11-19T07:21:38.058Z,3.05
2022-11-19T07:24:10.384Z,3.04
2022-11-19T07:26:42.246Z,3.08
2022-11-19T07:29:15.197Z,3.09
2022-11-19T07:31:50.453Z,3.09
2022-11-19T07:34:22.532Z,3.10
2022-11-19T07:36:55.366Z,3.11
2022-11-19T07:39:27.311Z,3.13
2022-11-19T07:42:17.814Z,3.15
2022-11-19T07:44:54.636Z,3.18
2022-11-19T07:47:27.091Z,3.22
2022-11-19T07:49:59.199Z,3.24
2022-11-19T07:52:31.686Z,3.28
2022-11-19T07:55:05.148Z,3.31
2022-11-19T07:57:37.370Z,3.35
2022-11-19T08:00:10.219Z,3.40
2022-11-19T08:02:49.682Z,3.43
2022-11-19T08:05:21.608Z,3.46
2022-11-19T08:07:53.571Z,3.50
2022-11-19T08:10:31.485Z,3.54
2022-11-19T08:13:03.898Z,3.58
2022-11-19T08:15:35.875Z,3.62
2022-11-19T08:18:16.172Z,3.65
2022-11-19T08:20:48.681Z,3.68
2022-11-19T08:23:22.056Z,3.71
2022-11-19T08:25:53.993Z,3.72
2022-11-19T08:28:26.524Z,3.75
2022-11-19T08:31:08.044Z,3.78
2022-11-19T08:33:40.000Z,3.81
2022-11-19T08:36:12.202Z,3.85
2022-11-19T08:38:44.272Z,3.90
2022-11-19T08:41:34.722Z,3.97
2022-11-19T08:44:06.569Z,4.03
2022-11-19T08:46:39.119Z,4.10
2022-11-19T08:49:12.155Z,4.19
2022-11-19T08:51:44.178Z,4.24
2022-11-19T08:54:16.782Z,4.32
2022-11-19T08:56:48.916Z,4.38
2022-11-19T08:59:22.028Z,4.42
2022-11-19T09:01:54.100Z,4.47
2022-11-19T09:04:26.036Z,4.50
2022-11-19T09:06:58.119Z,4.55
2022-11-19T09:09:30.074Z,4.58
2022-11-19T09:12:01.975Z,4.61
2022-11-19T09:14:33.950Z,4.63
2022-11-19T09:17:05.945Z,4.68
2022-11-19T09:19:37.823Z,4.71
2022-11-19T09:22:09.876Z,4.72
2022-11-19T09:24:41.966Z,4.71
2022-11-19T09:27:14.201Z,4.72
2022-11-19T09:29:46.025Z,4.71
2022-11-19T09:32:22.427Z,4.69
2022-11-19T09:34:57.095Z,4.69
2022-11-19T09:37:31.441Z,4.68
2022-11-19T09:40:04.702Z,4.69
2022-11-19T09:43:01.499Z,4.70
2022-11-19T09:45:45.477Z,4.71
2022-11-19T09:48:25.164Z,4.71
2022-11-19T09:51:03.362Z,4.71
2022-11-19T09:53:50.640Z,4.72
2022-11-19T09:56:41.828Z,4.71
2022-11-19T09:59:20.242Z,4.72
2022-11-19T10:01:52.886Z,4.72
2022-11-19T10:04:27.117Z,4.72
2022-11-19T10:07:31.432Z,4.70
2022-11-19T10:10:25.432Z,4.74
2022-11-19T10:12:57.802Z,4.78
2022-11-19T10:15:37.846Z,4.85
2022-11-19T10:18:25.256Z,4.91
2022-11-19T10:21:10.849Z,4.98
2022-11-19T10:23:45.547Z,5.05
2022-11-19T10:26:19.162Z,5.10
2022-11-19T10:28:56.400Z,5.16
2022-11-19T10:31:37.390Z,5.25
2022-11-19T10:34:23.361Z,5.33
2022-11-19T10:36:58.933Z,5.41
2022-11-19T10:39:40.035Z,5.53
2022-11-19T10:42:30.152Z,5.62
2022-11-19T10:45:22.260Z,5.72
2022-11-19T10:47:57.819Z,5.82
2022-11-19T10:50:29.749Z,5.91
2022-11-19T10:53:11.549Z,5.98
2022-11-19T10:55:54.195Z,6.05
2022-11-19T10:58:56.439Z,6.14
2022-11-19T11:01:37.071Z,6.19
2022-11-19T11:04:15.295Z,6.24
2022-11-19T11:06:56.251Z,6.27
2022-11-19T11:09:35.179Z,6.33
2022-11-19T11:12:29.497Z,6.42
2022-11-19T11:15:19.375Z,6.53
2022-11-19T11:18:06.877Z,6.69
2022-11-19T11:20:40.095Z,6.88
2022-11-19T11:23:23.131Z,7.18
2022-11-19T11:26:05.514Z,7.53
2022-11-19T11:28:54.929Z,8.18
2022-11-19T11:31:30.344Z,8.95
2022-11-19T11:34:02.712Z,9.79
2022-11-19T11:36:36.596Z,10.43
2022-11-19T11:39:28.294Z,11.08
2022-11-19T11:42:07.906Z,11.62
2022-11-19T11:44:50.945Z,12.15
2022-11-19T11:47:27.138Z,12.29
2022-11-19T11:50:08.206Z,12.04
2022-11-19T11:52:41.538Z,11.60
2022-11-19T11:55:16.511Z,11.18
2022-11-19T11:57:55.355Z,10.75
2022-11-19T12:00:38.339Z,10.38
2022-11-19T12:03:13.794Z,10.03
2022-11-19T12:05:51.690Z,9.74
2022-11-19T12:08:44.809Z,9.46
2022-11-19T12:11:53.914Z,9.19
2022-11-19T12:14:33.980Z,8.91
2022-11-19T12:17:11.761Z,8.70
2022-11-19T12:20:01.906Z,8.51
2022-11-19T12:22:46.092Z,8.33
2022-11-19T12:25:31.744Z,8.18
2022-11-19T12:28:12.211Z,8.07
2022-11-19T12:30:55.870Z,7.96
2022-11-19T12:33:55.769Z,7.85
2022-11-19T12:36:40.648Z,7.76
2022-11-19T12:39:40.520Z,7.69
2022-11-19T12:42:27.242Z,7.61
2022-11-19T12:45:21.200Z,7.56
2022-11-19T12:48:08.023Z,7.52
2022-11-19T12:50:42.578Z,7.49
2022-11-19T12:53:32.341Z,7.48
2022-11-19T12:56:16.960Z,7.47
2022-11-19T12:59:02.436Z,7.45
2022-11-19T13:01:36.412Z,7.42
2022-11-19T13:04:18.493Z,7.41
2022-11-19T13:07:12.676Z,7.38
2022-11-19T13:10:06.224Z,7.42
2022-11-19T13:12:42.016Z,7.47
2022-11-19T13:15:24.521Z,7.48
2022-11-19T13:17:58.526Z,7.51
2022-11-19T13:20:49.866Z,7.55
2022-11-19T13:23:25.682Z,7.57
2022-11-19T13:26:09.716Z,7.61
2022-11-19T13:28:50.522Z,7.63
2022-11-19T13:31:28.531Z,7.65
2022-11-19T13:34:06.081Z,7.66
2022-11-19T13:37:02.731Z,7.68
2022-11-19T13:39:43.477Z,7.71
2022-11-19T13:42:35.872Z,7.74
2022-11-19T13:45:14.440Z,7.73
2022-11-19T13:47:57.883Z,7.73
2022-11-19T13:50:43.379Z,7.68
2022-11-19T13:53:30.504Z,7.64
2022-11-19T13:56:02.677Z,7.60
2022-11-19T13:58:37.782Z,7.58
2022-11-19T14:01:41.819Z,7.54
2022-11-19T14:04:16.551Z,7.52
2022-11-19T14:06:57.352Z,7.48
2022-11-19T14:09:50.697Z,7.43
2022-11-19T14:12:44.135Z,7.40
2022-11-19T14:16:07.327Z,7.32
2022-11-19T14:19:00.131Z,7.28
2022-11-19T14:21:50.581Z,7.26
2022-11-19T14:24:43.814Z,7.24
2022-11-19T14:27:26.095Z,7.24
2022-11-19T14:30:00.468Z,7.23
2022-11-19T14:32:50.621Z,7.23
2022-11-19T14:35:25.443Z,7.22
2022-11-19T14:38:34.286Z,7.22
2022-11-19T14:41:16.147Z,7.22
2022-11-19T14:44:08.683Z,7.22
2022-11-19T14:46:42.846Z,7.24
2022-11-19T14:49:29.501Z,7.27
2022-11-19T14:52:02.368Z,7.27
2022-11-19T14:54:43.758Z,7.27
2022-11-19T14:57:28.149Z,7.25
2022-11-19T15:00:16.376Z,7.23
2022-11-19T15:02:51.119Z,7.20
2022-11-19T15:05:28.859Z,7.18
2022-11-19T15:08:19.118Z,7.14
2022-11-19T15:11:09.428Z,7.12
2022-11-19T15:13:45.826Z,7.09
2022-11-19T15:16:27.520Z,7.06
2022-11-19T15:19:21.895Z,7.03
2022-11-19T15:22:08.313Z,7.00
2022-11-19T15:25:23.784Z,6.97
2022-11-19T15:28:23.358Z,6.93
2022-11-19T15:31:05.053Z,6.88
2022-11-19T15:33:58.419Z,6.82
2022-11-19T15:36:33.699Z,6.77
2022-11-19T15:39:16.568Z,6.73
2022-11-19T15:42:01.351Z,6.69
2022-11-19T15:44:58.840Z,6.64
2022-11-19T15:47:39.245Z,6.59
2022-11-19T15:50:21.921Z,6.57
2022-11-19T15:53:00.688Z,6.51
2022-11-19T15:55:32.660Z,6.47
2022-11-19T15:58:14.489Z,6.43
2022-11-19T16:00:48.292Z,6.42
2022-11-19T16:03:20.685Z,6.42
2022-11-19T16:06:31.109Z,6.41
2022-11-19T16:09:06.538Z,6.38
2022-11-19T16:11:57.661Z,6.38
2022-11-19T16:14:48.830Z,6.40
2022-11-19T16:17:41.577Z,6.42
2022-11-19T16:20:20.724Z,6.45
2022-11-19T16:22:55.119Z,6.48
2022-11-19T16:25:31.024Z,6.51
2022-11-19T16:28:24.123Z,6.52
2022-11-19T16:31:01.148Z,6.51
2022-11-19T16:33:34.162Z,6.45
2022-11-19T16:36:16.663Z,6.42
2022-11-19T16:38:52.415Z,6.37
2022-11-19T16:41:44.055Z,6.33
2022-11-19T16:44:19.191Z,6.31
2022-11-19T16:46:52.030Z,6.31
2022-11-19T16:49:49.797Z,6.31
2022-11-19T16:52:37.516Z,6.30
2022-11-19T16:55:18.542Z,6.27
2022-11-19T16:57:56.167Z,6.25
2022-11-19T17:00:32.110Z,6.21
2022-11-19T17:03:19.182Z,6.19
2022-11-19T17:05:52.497Z,6.17
2022-11-19T17:08:28.095Z,6.15
2022-11-19T17:11:37.845Z,6.10
2022-11-19T17:14:40.890Z,6.08
2022-11-19T17:17:41.072Z,6.05
2022-11-19T17:20:29.421Z,6.02
2022-11-19T17:23:11.417Z,6.02
2022-11-19T17:25:49.918Z,6.02
2022-11-19T17:28:46.651Z,6.04
2022-11-19T17:31:26.235Z,6.08
2022-11-19T17:34:12.356Z,6.12
2022-11-19T17:36:44.992Z,6.14
2022-11-19T17:39:22.528Z,6.16
2022-11-19T17:42:15.671Z,6.16
2022-11-19T17:44:47.860Z,6.14
2022-11-19T17:47:22.828Z,6.11
2022-11-19T17:49:55.593Z,6.07
2022-11-19T17:52:29.696Z,6.07
2022-11-19T17:55:14.303Z,6.04
2022-11-19T17:57:46.128Z,6.04
2022-11-19T18:00:17.961Z,6.04
2022-11-19T18:02:50.627Z,6.04
2022-11-19T18:05:23.455Z,6.09
2022-11-19T18:07:55.267Z,6.11
2022-11-19T18:10:27.324Z,6.14
2022-11-19T18:12:59.770Z,6.16
2022-11-19T18:15:31.814Z,6.20
2022-11-19T18:18:03.738Z,6.22
2022-11-19T18:20:35.791Z,6.24
2022-11-19T18:23:12.183Z,6.25
2022-11-19T18:25:44.030Z,6.23
2022-11-19T18:28:15.912Z,6.21
2022-11-19T18:30:47.827Z,6.22
2022-11-19T18:33:20.997Z,6.24
2022-11-19T18:35:52.917Z,6.26
2022-11-19T18:38:24.837Z,6.28
2022-11-19T18:40:56.748Z,6.25
2022-11-19T18:43:47.446Z,6.25
2022-11-19T18:46:19.525Z,6.23
2022-11-19T18:48:51.727Z,6.23
2022-11-19T18:51:30.894Z,6.22
2022-11-19T18:54:02.908Z,6.22
2022-11-19T18:56:34.871Z,6.21
2022-11-19T18:59:07.208Z,6.21
2022-11-19T19:01:39.313Z,6.22
2022-11-19T19:04:14.358Z,6.23
2022-11-19T19:06:46.588Z,6.24
2022-11-19T19:09:20.472Z,6.24
2022-11-19T19:12:13.729Z,6.26
2022-11-19T19:14:48.175Z,6.25
2022-11-19T19:17:20.315Z,6.25
2022-11-19T19:19:52.221Z,6.25
2022-11-19T19:22:24.131Z,6.25
2022-11-19T19:24:58.360Z,6.26
2022-11-19T19:27:31.056Z,6.24
2022-11-19T19:30:03.298Z,6.22
2022-11-19T19:32:35.371Z,6.18
2022-11-19T19:35:07.557Z,6.18
2022-11-19T19:37:41.773Z,6.18
2022-11-19T19:40:13.925Z,6.17
2022-11-19T19:42:45.760Z,6.17
2022-11-19T19:45:17.612Z,6.14
2022-11-19T19:47:49.443Z,6.15
2022-11-19T19:50:21.296Z,6.14
2022-11-19T19:52:53.171Z,6.14
2022-11-19T19:55:26.442Z,6.13
2022-11-19T19:57:59.914Z,6.14
2022-11-19T20:00:31.740Z,6.15
2022-11-19T20:03:03.715Z,6.14
2022-11-19T20:05:35.552Z,6.14
2022-11-19T20:08:07.452Z,6.11
2022-11-19T20:10:39.280Z,6.07
2022-11-19T20:13:30.565Z,6.07
2022-11-19T20:16:14.594Z,6.07
2022-11-19T20:18:50.776Z,6.07
2022-11-19T20:21:34.141Z,6.04
2022-11-19T20:24:12.124Z,6.03
2022-11-19T20:26:44.523Z,6.02
2022-11-19T20:29:17.653Z,6.01
2022-11-19T20:31:50.230Z,6.00
2022-11-19T20:34:22.017Z,6.00
2022-11-19T20:36:53.840Z,5.99
2022-11-19T20:39:25.768Z,5.98
2022-11-19T20:42:15.797Z,5.97
2022-11-19T20:44:47.673Z,5.94
2022-11-19T20:47:19.544Z,5.88
2022-11-19T20:49:51.469Z,5.87
2022-11-19T20:52:23.266Z,5.89
2022-11-19T20:54:55.194Z,5.89
2022-11-19T20:57:27.016Z,5.88
2022-11-19T20:59:58.955Z,5.84
2022-11-19T21:02:30.796Z,5.83
2022-11-19T21:05:02.813Z,5.84
2022-11-19T21:07:34.732Z,5.88
2022-11-19T21:10:08.251Z,5.91
2022-11-19T21:13:00.158Z,5.95
2022-11-19T21:15:35.674Z,5.95
2022-11-19T21:18:07.622Z,5.96
2022-11-19T21:20:39.442Z,5.95
2022-11-19T21:23:11.387Z,5.91
2022-11-19T21:25:43.428Z,5.87
2022-11-19T21:28:15.363Z,5.86
2022-11-19T21:30:52.072Z,5.82
2022-11-19T21:33:28.362Z,5.81
2022-11-19T21:36:03.217Z,5.80
2022-11-19T21:38:35.368Z,5.76
2022-11-19T21:41:07.354Z,5.70
2022-11-19T21:43:39.286Z,5.68
2022-11-19T21:46:11.375Z,5.68
2022-11-19T21:48:43.287Z,5.72
2022-11-19T21:51:16.312Z,5.76
2022-11-19T21:53:49.826Z,5.77
2022-11-19T21:56:21.833Z,5.76
2022-11-19T21:58:53.782Z,5.75
2022-11-19T22:01:25.683Z,5.75
2022-11-19T22:03:57.569Z,5.75
2022-11-19T22:06:31.400Z,5.75
2022-11-19T22:09:03.306Z,5.76
2022-11-19T22:11:35.182Z,5.78
2022-11-19T22:14:08.456Z,5.79
2022-11-19T22:16:40.584Z,5.80
2022-11-19T22:19:12.888Z,5.76
2022-11-19T22:21:44.856Z,5.74
2022-11-19T22:24:17.004Z,5.72
2022-11-19T22:26:48.906Z,5.72
2022-11-19T22:29:21.076Z,5.77
2022-11-19T22:31:53.110Z,5.79
2022-11-19T22:34:25.199Z,5.83
2022-11-19T22:36:57.190Z,5.86
2022-11-19T22:39:29.147Z,5.86
2022-11-19T22:42:01.051Z,5.88
2022-11-19T22:44:32.923Z,5.89
2022-11-19T22:47:04.857Z,5.89
2022-11-19T22:49:36.658Z,5.88
2022-11-19T22:52:08.772Z,5.84
2022-11-19T22:54:41.912Z,5.80
2022-11-19T22:57:14.083Z,5.76
2022-11-19T22:59:45.948Z,5.78
2022-11-19T23:02:17.784Z,5.80
2022-11-19T23:04:49.869Z,5.82
2022-11-19T23:07:21.820Z,5.84
2022-11-19T23:09:53.676Z,5.86
2022-11-19T23:12:44.235Z,5.88
2022-11-19T23:15:16.133Z,5.87
2022-11-19T23:17:47.969Z,5.86
2022-11-19T23:20:19.756Z,5.79
2022-11-19T23:22:51.644Z,5.69
2022-11-19T23:25:23.671Z,5.64
2022-11-19T23:27:55.522Z,5.61
2022-11-19T23:30:27.357Z,5.60
2022-11-19T23:32:59.246Z,5.60
2022-11-19T23:35:34.380Z,5.58
2022-11-19T23:38:06.218Z,5.55
2022-11-19T23:40:38.288Z,5.53
2022-11-19T23:43:10.176Z,5.51
2022-11-19T23:45:42.034Z,5.48
2022-11-19T23:48:13.839Z,5.48
2022-11-19T23:50:45.890Z,5.47
2022-11-19T23:53:17.795Z,5.48
2022-11-19T23:55:50.167Z,5.49
2022-11-19T23:58:22.133Z,5.52
